sensor_id;sensor_type;location;lat;lon;timestamp;pressure;altitude;pressure_sealevel;temperature;humidity
30463;BME280;17256;43.618;25.336;2023-03-24T05:01:33;100834.38;;;9.48;100.00
30463;BME280;17256;43.618;25.336;2023-03-24T05:04:32;100600.63;;;8.51;100.00
30463;BME280;17256;43.618;25.336;2023-03-24T05:07:09;100663.16;;;8.91;100.00
30463;BME280;17256;43.618;25.336;2023-03-24T05:09:36;100830.69;;;10.14;100.00
30463;BME280;17256;43.618;25.336;2023-03-24T05:12:02;100407.06;;;7.63;100.00
30463;BME280;17256;43.618;25.336;2023-03-24T05:14:44;100577.03;;;8.50;100.00
30463;BME280;17256;43.618;25.336;2023-03-24T05:17:10;100490.97;;;8.15;100.00
30463;BME280;17256;43.618;25.336;2023-03-24T05:19:37;100842.34;;;10.46;100.00
30463;BME280;17256;43.618;25.336;2023-03-24T05:22:07;100656.41;;;9.02;100.00
30463;BME280;17256;43.618;25.336;2023-03-24T05:24:33;100608.50;;;8.98;100.00
30463;BME280;17256;43.618;25.336;2023-03-24T05:35:46;100572.41;;;9.09;100.00
30463;BME280;17256;43.618;25.336;2023-03-24T05:39:13;100865.31;;;10.96;100.00
30463;BME280;17256;43.618;25.336;2023-03-24T05:42:16;100752.59;;;10.46;100.00
30463;BME280;17256;43.618;25.336;2023-03-24T05:44:42;100755.16;;;10.69;100.00
30463;BME280;17256;43.618;25.336;2023-03-24T05:55:44;100658.25;;;10.82;100.00
30463;BME280;17256;43.618;25.336;2023-03-24T05:58:36;100690.94;;;10.98;100.00
30463;BME280;17256;43.618;25.336;2023-03-24T06:01:08;100569.75;;;10.59;100.00
30463;BME280;17256;43.618;25.336;2023-03-24T06:03:40;100590.72;;;10.94;100.00
30463;BME280;17256;43.618;25.336;2023-03-24T06:06:19;100637.25;;;11.37;100.00
30463;BME280;17256;43.618;25.336;2023-03-24T06:12:02;100846.81;;;12.16;100.00
30463;BME280;17256;43.618;25.336;2023-03-24T06:14:34;100578.22;;;10.64;100.00
30463;BME280;17256;43.618;25.336;2023-03-24T06:17:08;100710.19;;;11.67;100.00
30463;BME280;17256;43.618;25.336;2023-03-24T06:19:41;100641.47;;;11.33;100.00
30463;BME280;17256;43.618;25.336;2023-03-24T06:22:46;100699.94;;;11.89;100.00
30463;BME280;17256;43.618;25.336;2023-03-24T06:25:34;100624.09;;;11.32;100.00
30463;BME280;17256;43.618;25.336;2023-03-24T06:28:12;100557.91;;;11.27;100.00
30463;BME280;17256;43.618;25.336;2023-03-24T07:15:32;100505.84;;;12.13;100.00
30463;BME280;17256;43.618;25.336;2023-03-24T07:17:58;100482.97;;;11.99;100.00
30463;BME280;17256;43.618;25.336;2023-03-24T07:20:44;100508.59;;;12.00;100.00
30463;BME280;17256;43.618;25.336;2023-03-24T07:23:13;100555.41;;;12.20;100.00
30463;BME280;17256;43.618;25.336;2023-03-24T07:25:44;100615.72;;;13.07;100.00
30463;BME280;17256;43.618;25.336;2023-03-24T07:28:24;100616.53;;;13.41;99.28
30463;BME280;17256;43.618;25.336;2023-03-24T07:30:51;100734.56;;;14.48;97.00
30463;BME280;17256;43.618;25.336;2023-03-24T07:33:19;100697.06;;;14.21;97.51
30463;BME280;17256;43.618;25.336;2023-03-24T07:35:45;100750.63;;;14.64;97.08
30463;BME280;17256;43.618;25.336;2023-03-24T07:38:17;100825.25;;;15.27;93.57
30463;BME280;17256;43.618;25.336;2023-03-24T07:40:45;100692.59;;;14.58;93.12
30463;BME280;17256;43.618;25.336;2023-03-24T07:43:11;100744.19;;;14.26;95.58
30463;BME280;17256;43.618;25.336;2023-03-24T07:46:01;100533.44;;;13.04;98.59
30463;BME280;17256;43.618;25.336;2023-03-24T07:48:38;100557.50;;;13.48;95.50
30463;BME280;17256;43.618;25.336;2023-03-24T07:51:11;100750.09;;;15.05;93.17
30463;BME280;17256;43.618;25.336;2023-03-24T07:54:06;100714.88;;;14.94;90.98
30463;BME280;17256;43.618;25.336;2023-03-24T07:56:56;100734.84;;;15.21;89.14
30463;BME280;17256;43.618;25.336;2023-03-24T07:59:34;100534.56;;;14.18;86.69
30463;BME280;17256;43.618;25.336;2023-03-24T08:02:15;100637.91;;;15.09;85.87
30463;BME280;17256;43.618;25.336;2023-03-24T08:16:31;100911.69;;;16.84;80.48
30463;BME280;17256;43.618;25.336;2023-03-24T08:35:59;100594.09;;;16.10;76.23
30463;BME280;17256;43.618;25.336;2023-03-24T08:38:33;100679.34;;;16.26;75.18
30463;BME280;17256;43.618;25.336;2023-03-24T08:41:32;100879.78;;;17.23;77.28
30463;BME280;17256;43.618;25.336;2023-03-24T08:44:02;100752.72;;;16.53;77.51
30463;BME280;17256;43.618;25.336;2023-03-24T08:46:36;100753.44;;;17.20;75.21
30463;BME280;17256;43.618;25.336;2023-03-24T08:49:08;100745.63;;;16.76;76.72
30463;BME280;17256;43.618;25.336;2023-03-24T08:51:33;100542.94;;;15.71;76.16
30463;BME280;17256;43.618;25.336;2023-03-24T08:54:05;100821.78;;;17.57;74.39
30463;BME280;17256;43.618;25.336;2023-03-24T08:56:32;100736.16;;;16.95;75.73
30463;BME280;17256;43.618;25.336;2023-03-24T08:59:06;100647.81;;;16.69;74.82
30463;BME280;17256;43.618;25.336;2023-03-24T09:01:32;100822.53;;;17.64;74.22
30463;BME280;17256;43.618;25.336;2023-03-24T09:04:00;100748.13;;;17.19;77.00
30463;BME280;17256;43.618;25.336;2023-03-24T09:06:28;100460.59;;;15.48;73.87
30463;BME280;17256;43.618;25.336;2023-03-24T09:08:59;100503.44;;;15.45;74.69
30463;BME280;17256;43.618;25.336;2023-03-24T09:11:25;100698.66;;;17.16;74.13
30463;BME280;17256;43.618;25.336;2023-03-24T09:17:06;100725.31;;;17.52;71.15
30463;BME280;17256;43.618;25.336;2023-03-24T09:19:32;100733.47;;;18.05;71.74
30463;BME280;17256;43.618;25.336;2023-03-24T09:22:22;100869.41;;;18.94;70.94
30463;BME280;17256;43.618;25.336;2023-03-24T09:24:48;100650.16;;;17.94;67.85
30463;BME280;17256;43.618;25.336;2023-03-24T09:27:39;100745.69;;;18.85;65.93
30463;BME280;17256;43.618;25.336;2023-03-24T09:30:20;100788.91;;;19.38;64.86
30463;BME280;17256;43.618;25.336;2023-03-24T09:32:55;100640.25;;;18.26;63.73
30463;BME280;17256;43.618;25.336;2023-03-24T09:35:27;100569.94;;;17.69;63.00
30463;BME280;17256;43.618;25.336;2023-03-24T09:37:59;100744.69;;;18.62;64.04
30463;BME280;17256;43.618;25.336;2023-03-24T09:40:30;100633.47;;;18.51;62.53
30463;BME280;17256;43.618;25.336;2023-03-24T09:45:47;100851.03;;;20.05;61.81
30463;BME280;17256;43.618;25.336;2023-03-24T09:48:29;100839.13;;;20.10;59.78
30463;BME280;17256;43.618;25.336;2023-03-24T09:51:12;100680.84;;;18.84;58.37
30463;BME280;17256;43.618;25.336;2023-03-24T09:56:37;100840.56;;;19.45;59.42
30463;BME280;17256;43.618;25.336;2023-03-24T09:59:12;100837.78;;;19.79;59.40
30463;BME280;17256;43.618;25.336;2023-03-24T10:01:40;100744.28;;;19.16;59.52
30463;BME280;17256;43.618;25.336;2023-03-24T10:04:13;100842.84;;;19.82;57.73
30463;BME280;17256;43.618;25.336;2023-03-24T10:07:26;100832.78;;;19.47;59.18
30463;BME280;17256;43.618;25.336;2023-03-24T10:13:20;100537.16;;;18.44;58.46
30463;BME280;17256;43.618;25.336;2023-03-24T10:16:11;100664.44;;;19.21;57.58
30463;BME280;17256;43.618;25.336;2023-03-24T10:22:34;100825.19;;;20.10;56.87
30463;BME280;17256;43.618;25.336;2023-03-24T10:25:12;100826.91;;;20.33;56.44
30463;BME280;17256;43.618;25.336;2023-03-24T10:31:37;100652.13;;;19.94;55.76
30463;BME280;17256;43.618;25.336;2023-03-24T10:34:10;100707.59;;;20.40;54.28
30463;BME280;17256;43.618;25.336;2023-03-24T10:36:38;100558.38;;;19.61;54.56
30463;BME280;17256;43.618;25.336;2023-03-24T10:39:16;100659.38;;;20.17;53.61
30463;BME280;17256;43.618;25.336;2023-03-24T10:41:42;100678.63;;;20.19;52.06
30463;BME280;17256;43.618;25.336;2023-03-24T10:44:10;100690.94;;;20.45;54.44
30463;BME280;17256;43.618;25.336;2023-03-24T10:46:44;100725.16;;;20.89;52.97
30463;BME280;17256;43.618;25.336;2023-03-24T10:51:37;100522.34;;;19.11;53.72
30463;BME280;17256;43.618;25.336;2023-03-24T11:00:00;100792.53;;;20.98;52.77
30463;BME280;17256;43.618;25.336;2023-03-24T11:03:12;100792.53;;;20.98;53.43
30463;BME280;17256;43.618;25.336;2023-03-24T11:05:40;100779.66;;;20.97;53.43
30463;BME280;17256;43.618;25.336;2023-03-24T11:10:54;100522.41;;;19.38;53.31
30463;BME280;17256;43.618;25.336;2023-03-24T11:13:32;100428.97;;;19.25;51.83
30463;BME280;17256;43.618;25.336;2023-03-24T11:16:13;100607.53;;;20.43;50.46
30463;BME280;17256;43.618;25.336;2023-03-24T11:18:58;100685.19;;;21.15;51.41
30463;BME280;17256;43.618;25.336;2023-03-24T11:21:36;100625.09;;;21.08;51.16
30463;BME280;17256;43.618;25.336;2023-03-24T11:24:09;100557.06;;;20.82;50.67
30463;BME280;17256;43.618;25.336;2023-03-24T11:26:36;100601.16;;;21.22;49.98
30463;BME280;17256;43.618;25.336;2023-03-24T11:32:12;100612.34;;;20.53;51.39
30463;BME280;17256;43.618;25.336;2023-03-24T11:34:44;100480.44;;;19.66;50.25
30463;BME280;17256;43.618;25.336;2023-03-24T11:37:28;100636.00;;;20.77;51.01
30463;BME280;17256;43.618;25.336;2023-03-24T11:40:22;100728.31;;;21.67;51.23
30463;BME280;17256;43.618;25.336;2023-03-24T11:46:44;100354.28;;;19.44;49.91
30463;BME280;17256;43.618;25.336;2023-03-24T11:49:21;100552.06;;;20.52;49.89
30463;BME280;17256;43.618;25.336;2023-03-24T11:56:02;100464.00;;;19.97;50.85
30463;BME280;17256;43.618;25.336;2023-03-24T12:15:09;100680.16;;;21.55;51.83
30463;BME280;17256;43.618;25.336;2023-03-24T12:26:33;100489.69;;;20.63;51.12
30463;BME280;17256;43.618;25.336;2023-03-24T12:29:38;100663.03;;;21.41;50.61
30463;BME280;17256;43.618;25.336;2023-03-24T12:56:20;100424.84;;;20.46;45.99
30463;BME280;17256;43.618;25.336;2023-03-24T12:58:52;100393.34;;;20.55;46.65
30463;BME280;17256;43.618;25.336;2023-03-24T13:01:32;100191.63;;;19.40;45.24
30463;BME280;17256;43.618;25.336;2023-03-24T13:08:24;100538.34;;;21.87;45.07
30463;BME280;17256;43.618;25.336;2023-03-24T13:11:16;100489.38;;;21.69;44.24
30463;BME280;17256;43.618;25.336;2023-03-24T13:13:48;100602.94;;;22.01;43.47
30463;BME280;17256;43.618;25.336;2023-03-24T13:16:23;100443.72;;;21.33;44.93
30463;BME280;17256;43.618;25.336;2023-03-24T13:18:58;100257.91;;;20.22;43.90
30463;BME280;17256;43.618;25.336;2023-03-24T13:21:25;100398.97;;;21.23;43.62
30463;BME280;17256;43.618;25.336;2023-03-24T13:24:06;100440.97;;;21.48;43.86
30463;BME280;17256;43.618;25.336;2023-03-24T13:27:01;100589.38;;;22.60;44.63
30463;BME280;17256;43.618;25.336;2023-03-24T13:45:57;100153.97;;;19.75;41.67
30463;BME280;17256;43.618;25.336;2023-03-24T13:49:23;100395.09;;;21.24;42.01
30463;BME280;17256;43.618;25.336;2023-03-24T13:52:54;100175.59;;;20.10;42.25
30463;BME280;17256;43.618;25.336;2023-03-24T13:56:03;100516.03;;;22.63;41.42
30463;BME280;17256;43.618;25.336;2023-03-24T14:09:13;100528.91;;;22.19;40.52
30463;BME280;17256;43.618;25.336;2023-03-24T14:12:31;100391.50;;;21.49;41.34
30463;BME280;17256;43.618;25.336;2023-03-24T14:15:59;100523.34;;;22.39;40.22
30463;BME280;17256;43.618;25.336;2023-03-24T14:21:52;100210.66;;;20.63;39.40
30463;BME280;17256;43.618;25.336;2023-03-24T14:24:28;100150.53;;;20.15;38.35
30463;BME280;17256;43.618;25.336;2023-03-24T14:26:56;100464.53;;;21.98;38.88
30463;BME280;17256;43.618;25.336;2023-03-24T14:34:59;100291.41;;;21.05;38.95
30463;BME280;17256;43.618;25.336;2023-03-24T14:37:52;100523.34;;;22.39;39.02
30463;BME280;17256;43.618;25.336;2023-03-24T14:41:04;100504.03;;;22.58;38.81
30463;BME280;17256;43.618;25.336;2023-03-24T14:57:28;100347.28;;;21.20;39.14
30463;BME280;17256;43.618;25.336;2023-03-24T15:02:46;100347.91;;;21.33;39.26
30463;BME280;17256;43.618;25.336;2023-03-24T15:05:23;100485.28;;;22.13;39.36
30463;BME280;17256;43.618;25.336;2023-03-24T15:08:00;100486.97;;;22.14;39.13
30463;BME280;17256;43.618;25.336;2023-03-24T15:10:34;100287.19;;;20.93;38.18
30463;BME280;17256;43.618;25.336;2023-03-24T15:13:02;100404.69;;;21.59;38.47
30463;BME280;17256;43.618;25.336;2023-03-24T15:15:32;100435.44;;;21.79;38.14
30463;BME280;17256;43.618;25.336;2023-03-24T15:22:39;100477.94;;;21.96;38.92
30463;BME280;17256;43.618;25.336;2023-03-24T15:26:11;100349.81;;;21.22;38.49
30463;BME280;17256;43.618;25.336;2023-03-24T15:32:35;100246.81;;;20.38;38.96
30463;BME280;17256;43.618;25.336;2023-03-24T15:35:05;100292.72;;;20.67;37.90
30463;BME280;17256;43.618;25.336;2023-03-24T15:37:36;100478.19;;;21.74;38.49
30463;BME280;17256;43.618;25.336;2023-03-24T15:40:05;100486.28;;;21.76;38.79
30463;BME280;17256;43.618;25.336;2023-03-24T15:42:44;100308.34;;;20.68;39.05
30463;BME280;17256;43.618;25.336;2023-03-24T15:45:24;100420.78;;;21.26;40.31
30463;BME280;17256;43.618;25.336;2023-03-24T15:47:52;100243.63;;;20.09;40.96
30463;BME280;17256;43.618;25.336;2023-03-24T15:53:20;100240.28;;;19.64;41.32
30463;BME280;17256;43.618;25.336;2023-03-24T15:56:00;100287.16;;;19.78;42.36
30463;BME280;17256;43.618;25.336;2023-03-24T15:58:29;100258.63;;;19.60;42.69
30463;BME280;17256;43.618;25.336;2023-03-24T16:04:30;100456.75;;;20.60;44.08
30463;BME280;17256;43.618;25.336;2023-03-24T16:06:57;100273.94;;;19.31;45.03
30463;BME280;17256;43.618;25.336;2023-03-24T16:09:23;100264.41;;;19.22;46.08
30463;BME280;17256;43.618;25.336;2023-03-24T16:11:57;100463.72;;;20.31;46.23
30463;BME280;17256;43.618;25.336;2023-03-24T16:14:32;100234.75;;;18.79;47.25
30463;BME280;17256;43.618;25.336;2023-03-24T16:17:03;100449.00;;;20.03;47.65
30463;BME280;17256;43.618;25.336;2023-03-24T16:19:29;100153.44;;;17.96;47.74
30463;BME280;17256;43.618;25.336;2023-03-24T16:22:08;100463.00;;;19.54;48.37
30463;BME280;17256;43.618;25.336;2023-03-24T16:24:36;100320.38;;;18.55;47.80
30463;BME280;17256;43.618;25.336;2023-03-24T16:27:08;100391.78;;;18.88;48.71
30463;BME280;17256;43.618;25.336;2023-03-24T16:33:03;100215.91;;;17.38;49.19
30463;BME280;17256;43.618;25.336;2023-03-24T16:35:32;100312.06;;;17.61;49.76
30463;BME280;17256;43.618;25.336;2023-03-24T16:37:58;100377.47;;;17.68;49.69
30463;BME280;17256;43.618;25.336;2023-03-24T16:40:32;100188.00;;;16.66;49.66
30463;BME280;17256;43.618;25.336;2023-03-24T16:43:09;100416.53;;;17.95;49.38
30463;BME280;17256;43.618;25.336;2023-03-24T16:45:34;100382.03;;;17.46;50.04
30463;BME280;17256;43.618;25.336;2023-03-24T16:48:03;100247.81;;;16.61;50.18
30463;BME280;17256;43.618;25.336;2023-03-24T16:50:49;100242.06;;;16.51;50.25
30463;BME280;17256;43.618;25.336;2023-03-24T16:53:26;100222.88;;;16.21;50.49
30463;BME280;17256;43.618;25.336;2023-03-24T16:55:51;100262.69;;;16.44;50.79
30463;BME280;17256;43.618;25.336;2023-03-24T16:58:17;100237.97;;;16.02;51.00
30463;BME280;17256;43.618;25.336;2023-03-24T17:00:43;100265.78;;;16.19;51.06
30463;BME280;17256;43.618;25.336;2023-03-24T17:03:10;100262.91;;;16.14;51.21
30463;BME280;17256;43.618;25.336;2023-03-24T17:05:45;100434.53;;;17.19;51.41
30463;BME280;17256;43.618;25.336;2023-03-24T17:08:15;100442.63;;;17.09;51.49
30463;BME280;17256;43.618;25.336;2023-03-24T17:10:42;100439.91;;;16.97;51.89
30463;BME280;17256;43.618;25.336;2023-03-24T17:13:20;100344.16;;;16.43;52.08
30463;BME280;17256;43.618;25.336;2023-03-24T17:19:05;100435.59;;;16.78;52.42
30463;BME280;17256;43.618;25.336;2023-03-24T17:21:32;100386.59;;;16.43;52.42
30463;BME280;17256;43.618;25.336;2023-03-24T17:24:08;100197.09;;;15.22;52.48
30463;BME280;17256;43.618;25.336;2023-03-24T17:26:36;100264.84;;;15.55;52.24
30463;BME280;17256;43.618;25.336;2023-03-24T17:32:03;100189.00;;;15.09;52.06
30463;BME280;17256;43.618;25.336;2023-03-24T17:34:33;100043.59;;;14.20;52.10
30463;BME280;17256;43.618;25.336;2023-03-24T17:37:08;99938.03;;;13.52;51.90
30463;BME280;17256;43.618;25.336;2023-03-24T17:39:49;100141.88;;;14.92;52.15
30463;BME280;17256;43.618;25.336;2023-03-24T17:42:32;99850.94;;;13.15;51.93
30463;BME280;17256;43.618;25.336;2023-03-24T17:45:01;99938.84;;;13.41;53.45
30463;BME280;17256;43.618;25.336;2023-03-24T17:47:32;99971.06;;;13.71;52.47
30463;BME280;17256;43.618;25.336;2023-03-24T17:50:22;100034.50;;;13.89;53.09
30463;BME280;17256;43.618;25.336;2023-03-24T17:52:51;99977.44;;;13.71;52.62
30463;BME280;17256;43.618;25.336;2023-03-24T17:56:09;100313.25;;;15.76;52.79
30463;BME280;17256;43.618;25.336;2023-03-24T17:58:50;100138.72;;;14.65;52.59
30463;BME280;17256;43.618;25.336;2023-03-24T18:01:42;99992.13;;;13.53;53.10
30463;BME280;17256;43.618;25.336;2023-03-24T18:04:11;100445.38;;;16.22;52.97
30463;BME280;17256;43.618;25.336;2023-03-24T18:06:42;100129.56;;;14.53;52.53
30463;BME280;17256;43.618;25.336;2023-03-24T18:09:16;100325.56;;;15.91;52.11
30463;BME280;17256;43.618;25.336;2023-03-24T18:11:56;100425.13;;;16.33;52.27
30463;BME280;17256;43.618;25.336;2023-03-24T18:14:38;100213.47;;;15.12;51.98
30463;BME280;17256;43.618;25.336;2023-03-24T18:17:07;100121.75;;;14.50;52.16
30463;BME280;17256;43.618;25.336;2023-03-24T18:19:33;100291.44;;;15.44;52.66
30463;BME280;17256;43.618;25.336;2023-03-24T18:21:59;100158.19;;;14.70;52.53
30463;BME280;17256;43.618;25.336;2023-03-24T18:24:33;100250.63;;;15.16;52.25
30463;BME280;17256;43.618;25.336;2023-03-24T18:27:08;100271.78;;;15.22;51.89
30463;BME280;17256;43.618;25.336;2023-03-24T18:29:47;100332.41;;;15.65;52.16
30463;BME280;17256;43.618;25.336;2023-03-24T18:32:12;100165.47;;;14.53;52.48
30463;BME280;17256;43.618;25.336;2023-03-24T18:34:38;100177.50;;;14.59;53.82
30463;BME280;17256;43.618;25.336;2023-03-24T18:40:14;100185.16;;;14.45;55.45
30463;BME280;17256;43.618;25.336;2023-03-24T18:42:42;100154.53;;;14.28;55.29
30463;BME280;17256;43.618;25.336;2023-03-24T18:45:08;100219.78;;;14.59;55.53
30463;BME280;17256;43.618;25.336;2023-03-24T18:47:44;100143.47;;;14.16;55.03
30463;BME280;17256;43.618;25.336;2023-03-24T18:50:13;100233.47;;;14.54;55.08
30463;BME280;17256;43.618;25.336;2023-03-24T18:52:46;100144.09;;;14.00;54.95
30463;BME280;17256;43.618;25.336;2023-03-24T18:55:11;100207.13;;;14.22;56.37
30463;BME280;17256;43.618;25.336;2023-03-24T18:57:38;100164.22;;;13.89;56.73
30463;BME280;17256;43.618;25.336;2023-03-24T19:00:21;100269.97;;;14.44;56.41
30463;BME280;17256;43.618;25.336;2023-03-24T19:03:02;100273.00;;;14.55;56.08
30463;BME280;17256;43.618;25.336;2023-03-24T19:05:41;100243.78;;;14.29;55.80
30463;BME280;17256;43.618;25.336;2023-03-24T19:08:07;100186.94;;;13.91;55.05
30463;BME280;17256;43.618;25.336;2023-03-24T19:10:34;100240.03;;;14.23;54.65
30463;BME280;17256;43.618;25.336;2023-03-24T19:13:05;100170.34;;;13.91;54.29
30463;BME280;17256;43.618;25.336;2023-03-24T19:15:36;100333.22;;;14.83;54.68
30463;BME280;17256;43.618;25.336;2023-03-24T19:18:12;100187.75;;;13.92;54.72
30463;BME280;17256;43.618;25.336;2023-03-24T19:20:39;100199.09;;;14.02;55.32
30463;BME280;17256;43.618;25.336;2023-03-24T19:23:06;100195.94;;;13.98;55.74
30463;BME280;17256;43.618;25.336;2023-03-24T19:25:35;100157.31;;;13.80;55.46
30463;BME280;17256;43.618;25.336;2023-03-24T19:28:23;100249.69;;;14.32;55.96
30463;BME280;17256;43.618;25.336;2023-03-24T19:31:06;100396.50;;;15.21;55.92
30463;BME280;17256;43.618;25.336;2023-03-24T19:33:36;100302.69;;;14.59;55.90
30463;BME280;17256;43.618;25.336;2023-03-24T19:36:12;100237.50;;;14.22;55.88
30463;BME280;17256;43.618;25.336;2023-03-24T19:41:45;100393.53;;;15.04;56.49
30463;BME280;17256;43.618;25.336;2023-03-24T19:44:34;100387.78;;;15.05;56.64
30463;BME280;17256;43.618;25.336;2023-03-24T19:47:00;100101.00;;;13.33;56.72
30463;BME280;17256;43.618;25.336;2023-03-24T19:49:31;100120.41;;;13.44;57.27
30463;BME280;17256;43.618;25.336;2023-03-24T19:52:05;100023.41;;;12.92;57.28
30463;BME280;17256;43.618;25.336;2023-03-24T19:54:31;100194.50;;;13.77;57.01
30463;BME280;17256;43.618;25.336;2023-03-24T19:56:56;100077.56;;;13.23;57.21
30463;BME280;17256;43.618;25.336;2023-03-24T19:59:58;100367.28;;;14.95;58.08
30463;BME280;17256;43.618;25.336;2023-03-24T20:02:23;100139.41;;;13.52;58.42
30463;BME280;17256;43.618;25.336;2023-03-24T20:04:50;100246.34;;;13.94;58.38
30463;BME280;17256;43.618;25.336;2023-03-24T20:07:48;100368.78;;;14.79;59.94
30463;BME280;17256;43.618;25.336;2023-03-24T20:10:19;100224.03;;;13.77;60.18
30463;BME280;17256;43.618;25.336;2023-03-24T20:12:47;100205.75;;;13.58;61.49
30463;BME280;17256;43.618;25.336;2023-03-24T20:15:14;100052.09;;;12.60;61.59
30463;BME280;17256;43.618;25.336;2023-03-24T20:17:56;100168.94;;;13.27;60.74
30463;BME280;17256;43.618;25.336;2023-03-24T20:20:28;100184.59;;;13.51;60.89
30463;BME280;17256;43.618;25.336;2023-03-24T20:22:53;100040.63;;;12.63;62.47
30463;BME280;17256;43.618;25.336;2023-03-24T20:25:23;100021.94;;;12.47;63.12
30463;BME280;17256;43.618;25.336;2023-03-24T20:28:01;100146.59;;;13.10;63.31
30463;BME280;17256;43.618;25.336;2023-03-24T20:30:29;100018.19;;;12.41;63.01
30463;BME280;17256;43.618;25.336;2023-03-24T20:33:04;100290.50;;;13.94;63.51
30463;BME280;17256;43.618;25.336;2023-03-24T20:35:32;100252.63;;;13.82;63.08
30463;BME280;17256;43.618;25.336;2023-03-24T20:38:08;100260.06;;;14.00;62.83
30463;BME280;17256;43.618;25.336;2023-03-24T20:40:34;100028.50;;;12.71;63.07
30463;BME280;17256;43.618;25.336;2023-03-24T20:42:59;100079.06;;;13.01;63.08
30463;BME280;17256;43.618;25.336;2023-03-24T20:45:33;100073.56;;;12.76;64.85
30463;BME280;17256;43.618;25.336;2023-03-24T20:47:59;99984.34;;;12.09;65.66
30463;BME280;17256;43.618;25.336;2023-03-24T20:50:24;100181.06;;;13.26;66.07
30463;BME280;17256;43.618;25.336;2023-03-24T20:52:50;100226.44;;;13.48;67.97
30463;BME280;17256;43.618;25.336;2023-03-24T20:55:16;100226.75;;;13.40;67.50
30463;BME280;17256;43.618;25.336;2023-03-24T20:57:42;99893.63;;;11.39;67.06
30463;BME280;17256;43.618;25.336;2023-03-24T21:00:11;100200.84;;;13.41;67.15
30463;BME280;17256;43.618;25.336;2023-03-24T21:02:40;100033.81;;;12.47;67.23
30463;BME280;17256;43.618;25.336;2023-03-24T21:05:06;100085.06;;;12.73;67.70
30463;BME280;17256;43.618;25.336;2023-03-24T21:07:39;100143.84;;;13.10;68.47
30463;BME280;17256;43.618;25.336;2023-03-24T21:10:08;100202.63;;;13.54;69.11
30463;BME280;17256;43.618;25.336;2023-03-24T21:12:34;100099.72;;;12.92;69.24
30463;BME280;17256;43.618;25.336;2023-03-24T21:15:09;100050.59;;;12.64;70.19
30463;BME280;17256;43.618;25.336;2023-03-24T21:17:36;99887.59;;;11.56;71.04
30463;BME280;17256;43.618;25.336;2023-03-24T21:20:03;100161.00;;;13.12;71.87
30463;BME280;17256;43.618;25.336;2023-03-24T21:22:35;99987.03;;;11.91;72.70
30463;BME280;17256;43.618;25.336;2023-03-24T21:25:35;99783.28;;;10.35;76.27
30463;BME280;17256;43.618;25.336;2023-03-24T21:28:43;100070.50;;;11.78;77.47
30463;BME280;17256;43.618;25.336;2023-03-24T21:31:48;100052.41;;;11.51;78.81
30463;BME280;17256;43.618;25.336;2023-03-24T21:38:10;100044.72;;;11.21;82.19
30463;BME280;17256;43.618;25.336;2023-03-24T21:40:43;99895.66;;;10.23;83.23
30463;BME280;17256;43.618;25.336;2023-03-24T21:47:22;100295.69;;;12.77;84.91
30463;BME280;17256;43.618;25.336;2023-03-24T21:50:17;100031.81;;;11.22;86.14
30463;BME280;17256;43.618;25.336;2023-03-24T21:53:29;100293.66;;;12.66;87.83
30463;BME280;17256;43.618;25.336;2023-03-24T22:11:38;100289.06;;;11.95;96.76
30463;BME280;17256;43.618;25.336;2023-03-24T22:44:04;100285.31;;;11.37;100.00
30463;BME280;17256;43.618;25.336;2023-03-24T23:37:10;100243.81;;;11.71;100.00
30463;BME280;17256;43.618;25.336;2023-03-24T23:40:11;100241.91;;;11.72;100.00
30463;BME280;17256;43.618;25.336;2023-03-24T23:44:03;99760.28;;;8.85;100.00
30463;BME280;17256;43.618;25.336;2023-03-24T23:47:04;100244.03;;;11.57;100.00
30463;BME280;17256;43.618;25.336;2023-03-24T23:50:04;99789.56;;;8.78;100.00
30463;BME280;17256;43.618;25.336;2023-03-24T23:52:45;99763.81;;;8.46;100.00
30463;BME280;17256;43.618;25.336;2023-03-24T23:55:34;99841.78;;;8.70;100.00
30463;BME280;17256;43.618;25.336;2023-03-24T23:58:40;99963.50;;;9.29;100.00
